Metar Cercanos

 

LEPA - Palma De Mallorc, Spain
Distance from station: ONO 38km
Actualización: 21/10/2018 22:30
Few Clouds
Few Clouds
 Viento del varies
Viento: varies 2 km/h
Temperatura: 18°C
Rocío: 18°C
Humedad: 100%
Barómetro: 1018 hPa
Clouds: Few Clouds
Visibility: 10 km
Cloud details: Few Clouds 671 m
2018/10/21 20:30 LEPA 212030Z VRB01KT 9999 FEW022 18/18 Q1018 NOSIG
LEMH - Mahon/Menorca Is, Spain
Distance from station: ENE 105km
Actualización: 21/10/2018 22:30
Despejado
Despejado
 Viento del ONO
Viento: ONO 6 km/h
Temperatura: 17°C
Rocío: 15°C
Humedad: 88%
Barómetro: 1018 hPa
Resumen: Despejado
Visibility: greater than 10 km
2018/10/21 20:30 LEMH 212030Z 30003KT CAVOK 17/15 Q1018
 
LEIB - Ibiza/Es Codola, Spain
Distance from station: OSO 165km
Actualización: 21/10/2018 22:30
Few Clouds
Few Clouds
 Viento del varies
Viento: varies 2 km/h
Temperatura: 19°C
Rocío: 17°C
Humedad: 88%
Barómetro: 1019 hPa
Clouds: Few Clouds
Visibility: 10 km
Cloud details: Few Clouds 488 m
2018/10/21 20:30 LEIB 212030Z VRB01KT 9999 FEW016 19/17 Q1019 NOSIG
LEBL - Barcelona Airpor, Spain
Distance from station: NNO 225km
Actualización: 21/10/2018 22:30
Despejado
Despejado
 Viento del O
Viento: O 7 km/h
Temperatura: 18°C
Rocío: 16°C
Humedad: 88%
Barómetro: 1018 hPa
Resumen: Despejado
Visibility: greater than 10 km
2018/10/21 20:30 LEBL 212030Z 28004KT 230V350 CAVOK 18/16 Q1018 NOSIG
 
LEVC - Valencia (civ/Mi, Spain
Distance from station: NO 188km
Actualización: 21/10/2018 22:30
Few Clouds
Few Clouds
 Viento del OSO
Viento: OSO 4 km/h
Temperatura: 18°C
Rocío: 17°C
Humedad: 94%
Barómetro: 1020 hPa
Clouds: Few Clouds
Visibility: 9 km
Cloud details: Few Clouds 610 m
2018/10/21 20:30 LEVC 212030Z 25002KT 9000 FEW020 18/17 Q1020 NOSIG
LEGE - Gerona/Costa Bra, Spain
Distance from station: N 276km
Actualización: 21/10/2018 22:30
Parcialmente nuboso
Parcialmente nuboso
 Viento del calm
Viento: Calma
Temperatura: 14°C
Rocío: 14°C
Humedad: 100%
Barómetro: 1017 hPa
Clouds: Parcialmente nuboso
Visibility: 8 km
2018/10/21 20:30 LEGE 212030Z 00000KT 8000 NSC 14/14 Q1017
 
LEAL - Alicante/El Alte, Spain
Distance from station: OSO 344km
Actualización: 21/10/2018 22:30
Few Clouds
Few Clouds
 Viento del varies
Viento: varies 4 km/h
Temperatura: 21°C
Rocío: 19°C
Humedad: 88%
Barómetro: 1019 hPa
Clouds: Few Clouds
Visibility: 10 km
Cloud details: Few Clouds 366 m
2018/10/21 20:30 LEAL 212030Z VRB02KT 9999 FEW012 21/19 Q1019 NOSIG
LEAM - Almeria Airport, Spain
Distance from station: SSO 56km
Actualización: 21/10/2018 22:30
Despejado
Despejado
 Viento del ENE
Viento: ENE 15 km/h
Temperatura: 22°C
Rocío: 17°C
Humedad: 73%
Barómetro: 1018 hPa
Resumen: Despejado
Visibility: greater than 10 km
2018/10/21 20:30 LEAM 212030Z 07008KT CAVOK 22/17 Q1018
 
LEZG - Zaragoza (mil/Ci, Spain
Distance from station: NO 431km
Actualización: 21/10/2018 22:30
Few Clouds
Few Clouds
 Viento del OSO
Viento: OSO 15 km/h
Temperatura: 19°C
Rocío: 14°C
Humedad: 73%
Barómetro: 1019 hPa
Clouds: Few Clouds
Visibility: 10 km
Cloud details: Few Clouds 1219 m
2018/10/21 20:30 LEZG 212030Z 25008KT 9999 FEW040 19/14 Q1019
LEMD - Madrid/Barajas, Spain
Distance from station: ONO 234km
Actualización: 21/10/2018 22:30
Despejado
Despejado
 Viento del N
Viento: N 6 km/h
Temperatura: 15°C
Rocío: 14°C
Humedad: 94%
Barómetro: 1021 hPa
Resumen: Despejado
Visibility: greater than 10 km
2018/10/21 20:30 LEMD 212030Z 36003KT CAVOK 15/14 Q1021 NOSIG
 
LEGR - Granada Airport, Spain
Distance from station: OSO 62km
Actualización: 21/10/2018 22:30
Parcialmente nuboso
Parcialmente nuboso
 Viento del calm
Viento: Calma
Temperatura: 16°C
Rocío: 14°C
Humedad: 88%
Barómetro: 1020 hPa
Clouds: Parcialmente nuboso
Visibility: 10 km
Cloud details: Few Clouds 1219 m
Parcialmente nuboso 1829 m
2018/10/21 20:30 LEGR 212030Z 00000KT 9999 FEW040 SCT060 16/14 Q1020
LEMG - Malaga (civ/Mil), Spain
Distance from station: OSO 227km
Actualización: 21/10/2018 22:30
Muy nuboso
Muy nuboso
 Viento del NO
Viento: NO 6 km/h
Temperatura: 19°C
Rocío: 16°C
Humedad: 83%
Barómetro: 1018 hPa
Clouds: Muy nuboso
Visibility: 10 km
Cloud details: Few Clouds 762 m
Muy nuboso 1067 m
2018/10/21 20:30 LEMG 212030Z 31003KT 9999 FEW025 BKN035 19/16 Q1018 NOSIG
 
LEZL - Sevilla (civ/Mil, Spain
Distance from station: S 318km
Actualización: 21/10/2018 22:30
Despejado
Despejado
 Viento del calm
Viento: Calma
Temperatura: 18°C
Rocío: 17°C
Humedad: 94%
Barómetro: 1018 hPa
Resumen: Despejado
Visibility: greater than 10 km
2018/10/21 20:30 LEZL 212030Z 00000KT CAVOK 18/17 Q1018 NOSIG
LEVT - Vitoria, Spain
Distance from station: NO 226km
Actualización: 21/10/2018 22:30
Parcialmente nuboso
Parcialmente nuboso
 Viento del calm
Viento: Calma
Temperatura: 13°C
Rocío: 12°C
Humedad: 94%
Barómetro: 1023 hPa
Clouds: Parcialmente nuboso
Visibility: 8 km
2018/10/21 20:30 LEVT 212030Z 00000KT 8000 NSC 13/12 Q1023
 
LEBB - Bilbao/Sondica, Spain
Distance from station: NNO 235km
Actualización: 21/10/2018 22:30
Mist, Cubierto
Mist, Cubierto
 Viento del N
Viento: N 6 km/h
Temperatura: 16°C
Rocío: 16°C
Humedad: 100%
Barómetro: 1024 hPa
Resumen: Mist
Clouds: Cubierto
Visibility: 2 km
Cloud details: Cubierto 91 m
2018/10/21 20:30 LEBB 212030Z 01003KT 340V060 1800 BR OVC003 16/16 Q1024 TEMPO 0500 FG VV001
LESO - San Sebastian/Fu, Spain
Distance from station: N 231km
Actualización: 21/10/2018 22:30
Mist, Cubierto
Mist, Cubierto
 Viento del NO
Viento: NO 7 km/h
Temperatura: 16°C
Rocío: 15°C
Humedad: 94%
Barómetro: 1023 hPa
Resumen: Mist
Clouds: Cubierto
Visibility: 5 km
Cloud details: Cubierto 30 m
2018/10/21 20:30 LESO 212030Z AUTO 31004KT 280V350 5000 BR VV001 16/15 Q1023
 
LEVD - Valladolid(Mil/C, Spain
Distance from station: ONO 239km
Actualización: 21/10/2018 21:30
Despejado
Despejado
 Viento del NNE
Viento: NNE 6 km/h
Temperatura: 13°C
Rocío: 6°C
Humedad: 63%
Barómetro: 1022 hPa
Resumen: Despejado
Visibility: greater than 10 km
2018/10/21 19:30 LEVD 211930Z 03003KT 340V050 CAVOK 13/06 Q1022
LESA - Salamanca (civ/M, Spain
Distance from station: ONO 349km
Actualización: 21/10/2018 22:30
Despejado
Despejado
 Viento del calm
Viento: Calma
Temperatura: 12°C
Rocío: 10°C
Humedad: 88%
Barómetro: 1022 hPa
Clouds: Despejado
Visibility: 10 km
2018/10/21 20:30 LESA 212030Z AUTO 00000KT 9999 NCD 12/10 Q1022
 
LEXJ - Santander/Paraya, Spain
Distance from station: NNO 247km
Actualización: 21/10/2018 22:30
Mist, Cubierto
Mist, Cubierto
 Viento del varies
Viento: varies 4 km/h
Temperatura: 16°C
Rocío: 16°C
Humedad: 100%
Barómetro: 1024 hPa
Resumen: Mist
Clouds: Cubierto
Visibility: 2 km
Cloud details: Cubierto 91 m
2018/10/21 20:30 LEXJ 212030Z VRB02KT 2000 BR OVC003 16/16 Q1024
LEAS - Asturias/Aviles, Spain
Distance from station: NO 214km
Actualización: 21/10/2018 22:30
Mist, Muy nuboso
Mist, Muy nuboso
 Viento del ENE
Viento: ENE 7 km/h
Temperatura: 16°C
Rocío: 15°C
Humedad: 94%
Barómetro: 1024 hPa
Resumen: Mist
Clouds: Muy nuboso
Visibility: 5 km
Cloud details: Few Clouds 305 m
Muy nuboso 396 m
2018/10/21 20:30 LEAS 212030Z 07004KT 030V110 5000 BR FEW010 BKN013 16/15 Q1024 TEMPO 3000 BR
 
LECO - La Coruna/Alvedr, Spain
Distance from station: ONO 222km
Actualización: 21/10/2018 22:30
Despejado
Despejado
 Viento del N
Viento: N 6 km/h
Temperatura: 16°C
Rocío: 14°C
Humedad: 88%
Barómetro: 1022 hPa
Resumen: Despejado
Visibility: greater than 10 km
2018/10/21 20:30 LECO 212030Z 35003KT 300V040 CAVOK 16/14 Q1022 NOSIG
LEVX - Vigo/Peinador, Spain
Distance from station: O 214km
Actualización: 21/10/2018 22:30
Despejado
Despejado
 Viento del calm
Viento: Calma
Temperatura: 22°C
Rocío: 14°C
Humedad: 61%
Barómetro: 1020 hPa
Resumen: Despejado
Visibility: greater than 10 km
2018/10/21 20:30 LEVX 212030Z 00000KT CAVOK 22/14 Q1020 NOSIG